createdAt,value
2023-03-17T00:02:02.431Z,1.20
2023-03-17T00:04:33.553Z,2.20
2023-03-17T00:07:04.506Z,2.03
2023-03-17T00:09:35.482Z,1.60
2023-03-17T00:12:13.249Z,2.15
2023-03-17T00:14:46.522Z,1.83
2023-03-17T00:17:17.568Z,2.13
2023-03-17T00:19:48.916Z,2.00
2023-03-17T00:22:22.449Z,1.90
2023-03-17T00:24:53.676Z,2.10
2023-03-17T00:27:25.262Z,2.10
2023-03-17T00:29:56.294Z,1.70
2023-03-17T00:32:27.642Z,1.87
2023-03-17T00:34:58.912Z,2.40
2023-03-17T00:37:29.992Z,2.63
2023-03-17T00:40:01.039Z,2.00
2023-03-17T00:42:31.885Z,2.13
2023-03-17T00:45:03.803Z,2.40
2023-03-17T00:47:34.823Z,1.90
2023-03-17T00:50:06.891Z,1.77
2023-03-17T00:52:39.101Z,1.70
2023-03-17T00:55:12.444Z,2.33
2023-03-17T00:57:43.846Z,1.70
2023-03-17T01:00:24.854Z,1.87
2023-03-17T01:02:57.439Z,2.03
2023-03-17T01:05:28.682Z,1.77
2023-03-17T01:08:00.200Z,1.70
2023-03-17T01:10:32.701Z,1.47
2023-03-17T01:13:03.813Z,2.27
2023-03-17T01:15:35.629Z,1.87
2023-03-17T01:18:06.799Z,1.70
2023-03-17T01:20:37.762Z,2.13
2023-03-17T01:23:09.620Z,1.93
2023-03-17T01:25:42.869Z,2.23
2023-03-17T01:28:16.853Z,2.00
2023-03-17T01:30:49.318Z,2.10
2023-03-17T01:33:20.953Z,2.07
2023-03-17T01:35:53.697Z,1.47
2023-03-17T01:38:24.759Z,1.70
2023-03-17T01:40:55.302Z,1.93
2023-03-17T01:43:29.568Z,2.10
2023-03-17T01:46:21.686Z,1.53
2023-03-17T01:49:06.243Z,2.22
2023-03-17T01:51:40.567Z,1.97
2023-03-17T01:54:14.701Z,1.73
2023-03-17T01:56:47.526Z,1.67
2023-03-17T01:59:21.444Z,2.37
2023-03-17T02:01:55.407Z,2.50
2023-03-17T02:04:27.034Z,2.17
2023-03-17T02:06:59.574Z,2.30
2023-03-17T02:09:31.696Z,2.03
2023-03-17T02:12:03.939Z,2.30
2023-03-17T02:14:36.611Z,2.70
2023-03-17T02:17:07.865Z,2.17
2023-03-17T02:19:39.044Z,1.73
2023-03-17T02:22:10.314Z,2.30
2023-03-17T02:24:43.600Z,2.00
2023-03-17T02:27:17.725Z,1.80
2023-03-17T02:29:49.403Z,2.50
2023-03-17T02:32:22.119Z,2.30
2023-03-17T02:34:53.190Z,2.20
2023-03-17T02:37:24.029Z,2.63
2023-03-17T02:40:15.111Z,1.80
2023-03-17T02:42:46.964Z,1.90
2023-03-17T02:45:18.193Z,2.33
2023-03-17T02:47:49.478Z,1.80
2023-03-17T02:50:23.233Z,1.70
2023-03-17T02:52:54.881Z,2.37
2023-03-17T02:55:26.458Z,2.03
2023-03-17T02:57:58.306Z,2.40
2023-03-17T03:00:31.032Z,2.03
2023-03-17T03:03:02.533Z,1.90
2023-03-17T03:05:33.467Z,2.95
2023-03-17T03:08:04.710Z,2.63
2023-03-17T03:10:36.267Z,2.00
2023-03-17T03:13:07.342Z,2.10
2023-03-17T03:15:38.329Z,2.03
2023-03-17T03:18:09.904Z,2.20
2023-03-17T03:20:44.931Z,2.00
2023-03-17T03:23:17.169Z,2.27
2023-03-17T03:25:48.467Z,2.85
2023-03-17T03:28:19.359Z,1.90
2023-03-17T03:30:50.854Z,2.20
2023-03-17T03:33:21.724Z,2.20
2023-03-17T03:35:52.957Z,3.20
2023-03-17T03:38:23.842Z,2.23
2023-03-17T03:40:54.813Z,2.37
2023-03-17T03:43:25.941Z,2.43
2023-03-17T03:45:56.840Z,1.87
2023-03-17T03:48:27.865Z,2.17
2023-03-17T03:51:00.595Z,2.07
2023-03-17T03:53:32.252Z,2.10
2023-03-17T03:56:03.207Z,1.87
2023-03-17T03:58:34.414Z,1.50
2023-03-17T04:01:08.307Z,1.93
2023-03-17T04:03:39.670Z,2.17
2023-03-17T04:06:11.493Z,2.30
2023-03-17T04:08:42.400Z,1.90
2023-03-17T04:11:13.347Z,1.83
2023-03-17T04:13:44.382Z,2.17
2023-03-17T04:16:15.324Z,1.50
2023-03-17T04:18:46.431Z,2.00
2023-03-17T04:21:19.111Z,1.60
2023-03-17T04:23:50.749Z,1.67
2023-03-17T04:26:23.178Z,2.07
2023-03-17T04:28:54.765Z,1.87
2023-03-17T04:31:26.120Z,2.27
2023-03-17T04:33:57.096Z,2.90
2023-03-17T04:36:28.143Z,5.77
2023-03-17T04:38:59.134Z,3.40
2023-03-17T04:41:30.036Z,1.97
2023-03-17T04:44:01.067Z,1.40
2023-03-17T04:46:32.472Z,1.80
2023-03-17T04:49:03.503Z,2.27
2023-03-17T04:51:35.581Z,2.20
2023-03-17T04:54:07.362Z,1.83
2023-03-17T04:56:38.430Z,1.90
2023-03-17T04:59:09.982Z,1.53
2023-03-17T05:01:42.138Z,1.80
2023-03-17T05:04:25.293Z,2.02
2023-03-17T05:06:46.186Z,1.70
2023-03-17T05:09:17.058Z,1.70
2023-03-17T05:11:48.301Z,1.73
2023-03-17T05:14:19.141Z,1.90
2023-03-17T05:16:51.605Z,1.70
2023-03-17T05:19:22.669Z,1.90
2023-03-17T05:21:53.535Z,2.50
2023-03-17T05:24:24.531Z,1.50
2023-03-17T05:26:55.414Z,1.80
2023-03-17T05:29:26.451Z,2.10
2023-03-17T05:31:57.557Z,2.73
2023-03-17T05:34:28.386Z,3.00
2023-03-17T05:36:59.338Z,2.53
2023-03-17T05:39:30.176Z,3.27
2023-03-17T05:42:01.045Z,2.40
2023-03-17T05:44:32.047Z,2.80
2023-03-17T05:47:03.121Z,2.33
2023-03-17T05:49:34.071Z,2.40
2023-03-17T05:52:05.154Z,2.00
2023-03-17T05:54:36.371Z,1.83
2023-03-17T05:57:08.340Z,2.13
2023-03-17T05:59:39.737Z,1.70
2023-03-17T06:02:12.211Z,1.80
2023-03-17T06:04:44.210Z,1.93
2023-03-17T06:07:15.320Z,2.60
2023-03-17T06:09:46.390Z,2.20
2023-03-17T06:12:17.563Z,2.90
2023-03-17T06:17:27.088Z,2.00
2023-03-17T06:19:58.013Z,1.73
2023-03-17T06:22:28.906Z,1.30
2023-03-17T06:25:00.196Z,1.50
2023-03-17T06:27:31.674Z,1.80
2023-03-17T06:30:03.120Z,3.17
2023-03-17T06:32:34.547Z,1.27
2023-03-17T06:35:06.337Z,1.70
2023-03-17T06:37:38.251Z,1.60
2023-03-17T06:40:12.734Z,1.67
2023-03-17T06:42:43.663Z,1.60
2023-03-17T06:45:16.125Z,1.53
2023-03-17T06:47:47.182Z,1.80
2023-03-17T06:50:19.097Z,3.23
2023-03-17T06:52:50.070Z,1.80
2023-03-17T06:55:22.139Z,1.93
2023-03-17T06:57:54.459Z,1.93
2023-03-17T07:00:25.848Z,1.80
2023-03-17T07:02:56.876Z,2.50
2023-03-17T07:05:29.218Z,1.87
2023-03-17T07:08:01.196Z,1.67
2023-03-17T07:10:33.401Z,1.60
2023-03-17T07:13:06.315Z,1.70
2023-03-17T07:15:37.493Z,1.87
2023-03-17T07:18:09.630Z,1.40
2023-03-17T07:20:40.620Z,1.43
2023-03-17T07:23:15.145Z,1.90
2023-03-17T07:25:47.382Z,1.57
2023-03-17T07:30:58.198Z,1.53
2023-03-17T07:33:29.262Z,2.70
2023-03-17T07:36:00.251Z,1.70
2023-03-17T07:38:31.291Z,1.60
2023-03-17T07:41:03.839Z,1.93
2023-03-17T07:43:35.036Z,1.67
2023-03-17T07:46:06.833Z,2.07
2023-03-17T07:48:39.704Z,1.50
2023-03-17T07:51:14.520Z,1.40
2023-03-17T07:56:24.735Z,1.40
2023-03-17T07:58:57.235Z,1.50
2023-03-17T08:01:28.668Z,1.57
2023-03-17T08:03:59.747Z,1.43
2023-03-17T08:06:31.318Z,1.73
2023-03-17T08:09:02.769Z,1.70
2023-03-17T08:11:36.129Z,1.40
2023-03-17T08:14:07.625Z,1.37
2023-03-17T08:16:38.775Z,1.70
2023-03-17T08:19:10.896Z,1.43
2023-03-17T08:21:42.328Z,1.70
2023-03-17T08:24:13.611Z,1.33
2023-03-17T08:26:44.803Z,1.40
2023-03-17T08:29:16.632Z,1.40
2023-03-17T08:31:48.085Z,1.70
2023-03-17T08:34:19.431Z,1.17
2023-03-17T08:36:50.270Z,1.30
2023-03-17T08:39:21.777Z,1.80
2023-03-17T08:41:53.044Z,1.30
2023-03-17T08:44:24.362Z,1.47
2023-03-17T08:46:56.578Z,1.40
2023-03-17T08:49:27.664Z,1.23
2023-03-17T08:51:58.812Z,1.50
2023-03-17T08:54:29.960Z,1.03
2023-03-17T08:57:02.044Z,1.53
2023-03-17T08:59:32.995Z,1.80
2023-03-17T09:02:04.178Z,1.20
2023-03-17T09:04:39.557Z,0.97
2023-03-17T09:07:10.547Z,1.47
2023-03-17T09:09:41.700Z,1.30
2023-03-17T09:12:12.589Z,1.30
2023-03-17T09:14:45.206Z,1.00
2023-03-17T09:17:16.703Z,1.33
2023-03-17T09:19:48.244Z,1.00
2023-03-17T09:22:20.354Z,0.97
2023-03-17T09:24:51.477Z,1.10
2023-03-17T09:27:22.774Z,1.03
2023-03-17T09:29:53.900Z,0.87
2023-03-17T09:32:24.939Z,1.30
2023-03-17T09:34:56.453Z,1.03
2023-03-17T09:37:27.789Z,0.80
2023-03-17T09:39:59.083Z,1.03
2023-03-17T09:42:51.735Z,1.00
2023-03-17T09:45:43.673Z,0.97
2023-03-17T09:48:28.404Z,1.10
2023-03-17T09:51:02.439Z,0.90
2023-03-17T09:53:36.142Z,1.00
2023-03-17T09:56:12.452Z,0.90
2023-03-17T09:58:46.353Z,0.60
2023-03-17T10:01:18.800Z,0.77
2023-03-17T10:03:51.918Z,0.83
2023-03-17T10:06:34.461Z,0.77
2023-03-17T10:09:11.154Z,0.80
2023-03-17T10:11:45.035Z,0.70
2023-03-17T10:14:27.513Z,0.67
2023-03-17T10:19:42.067Z,0.70
2023-03-17T10:22:17.863Z,0.70
2023-03-17T10:24:52.636Z,0.90
2023-03-17T10:27:24.438Z,1.00
2023-03-17T10:29:57.236Z,1.00
2023-03-17T10:32:31.328Z,1.03
2023-03-17T10:35:02.513Z,1.10
2023-03-17T10:37:35.335Z,1.10
2023-03-17T10:40:10.861Z,1.45
2023-03-17T10:42:50.019Z,1.33
2023-03-17T10:45:25.973Z,0.93
2023-03-17T10:47:58.615Z,1.30
2023-03-17T10:50:32.299Z,1.00
2023-03-17T10:53:07.804Z,0.90
2023-03-17T10:55:42.706Z,1.00
2023-03-17T10:58:18.441Z,0.90
2023-03-17T11:00:57.788Z,1.20
2023-03-17T11:03:47.674Z,0.90
2023-03-17T11:06:20.589Z,1.27
2023-03-17T11:08:54.988Z,0.77
2023-03-17T11:11:28.307Z,1.00
2023-03-17T11:14:05.619Z,0.90
2023-03-17T11:16:39.296Z,0.97
2023-03-17T11:19:14.000Z,0.70
2023-03-17T11:21:48.739Z,0.90
2023-03-17T11:24:22.544Z,0.90
2023-03-17T11:26:59.695Z,1.00
2023-03-17T11:29:37.249Z,0.93
2023-03-17T11:32:22.601Z,0.80
2023-03-17T11:35:01.476Z,1.17
2023-03-17T11:37:39.420Z,1.30
2023-03-17T11:40:15.739Z,1.03
2023-03-17T11:42:50.305Z,1.33
2023-03-17T11:45:26.420Z,1.00
2023-03-17T11:48:06.519Z,0.97
2023-03-17T11:50:41.142Z,0.87
2023-03-17T11:53:37.842Z,1.20
2023-03-17T11:56:14.083Z,0.93
2023-03-17T11:58:47.237Z,1.10
2023-03-17T12:01:21.789Z,0.97
2023-03-17T12:06:35.660Z,1.27
2023-03-17T12:09:10.280Z,1.00
2023-03-17T12:14:27.436Z,1.10
2023-03-17T12:17:04.008Z,1.20
2023-03-17T12:19:40.781Z,1.40
2023-03-17T12:22:16.985Z,1.10
2023-03-17T12:24:53.696Z,1.30
2023-03-17T12:27:29.831Z,1.10
2023-03-17T12:30:04.029Z,1.30
2023-03-17T12:32:39.731Z,1.30
2023-03-17T12:38:03.587Z,1.10
2023-03-17T12:40:38.886Z,1.20
2023-03-17T12:43:23.209Z,1.40
2023-03-17T12:46:23.311Z,1.30
2023-03-17T12:49:09.277Z,1.33
2023-03-17T12:52:04.830Z,1.30
2023-03-17T12:54:38.859Z,1.40
2023-03-17T12:57:15.918Z,1.40
2023-03-17T12:59:49.423Z,1.40
2023-03-17T13:02:26.234Z,1.10
2023-03-17T13:05:00.467Z,1.20
2023-03-17T13:10:25.473Z,1.40
2023-03-17T13:13:07.239Z,1.53
2023-03-17T13:15:58.445Z,1.27
2023-03-17T13:21:35.394Z,1.40
2023-03-17T13:24:27.462Z,1.40
2023-03-17T13:27:02.732Z,1.10
2023-03-17T13:29:48.863Z,1.13
2023-03-17T13:32:39.725Z,0.90
2023-03-17T13:38:39.667Z,1.30
2023-03-17T13:41:27.060Z,1.80
2023-03-17T13:44:09.356Z,1.03
2023-03-17T13:46:46.834Z,1.00
2023-03-17T13:49:32.301Z,0.83
2023-03-17T13:52:08.343Z,0.80
2023-03-17T13:54:44.152Z,1.00
2023-03-17T13:57:30.757Z,1.20
2023-03-17T14:00:06.299Z,1.23
2023-03-17T14:05:24.253Z,1.10
2023-03-17T14:07:58.616Z,1.17
2023-03-17T14:10:31.656Z,1.23
2023-03-17T14:13:06.273Z,1.40
2023-03-17T14:15:42.638Z,1.30
2023-03-17T14:20:57.091Z,1.10
2023-03-17T14:23:28.484Z,1.33
2023-03-17T14:26:00.911Z,1.60
2023-03-17T14:28:33.620Z,1.23
2023-03-17T14:31:07.406Z,1.50
2023-03-17T14:33:41.833Z,1.77
2023-03-17T14:36:15.029Z,1.03
2023-03-17T14:38:52.188Z,1.30
2023-03-17T14:41:25.480Z,1.37
2023-03-17T14:43:59.906Z,1.20
2023-03-17T14:49:17.517Z,1.03
2023-03-17T14:51:51.183Z,1.50
2023-03-17T14:54:24.843Z,1.50
2023-03-17T14:57:00.324Z,1.30
2023-03-17T14:59:35.004Z,1.30
2023-03-17T15:02:17.645Z,1.20
2023-03-17T15:04:54.798Z,1.23
2023-03-17T15:07:39.957Z,1.23
2023-03-17T15:13:02.317Z,1.30
2023-03-17T15:15:52.284Z,1.23
2023-03-17T15:18:25.628Z,1.37
2023-03-17T15:20:58.563Z,1.40
2023-03-17T15:23:31.051Z,1.20
2023-03-17T15:26:03.493Z,1.37
2023-03-17T15:28:34.451Z,1.20
2023-03-17T15:31:13.127Z,1.10
2023-03-17T15:33:44.328Z,1.13
2023-03-17T15:36:31.865Z,1.10
2023-03-17T15:38:50.730Z,2.00
2023-03-17T15:41:21.705Z,1.53
2023-03-17T15:43:52.361Z,1.17
2023-03-17T15:46:27.778Z,1.40
2023-03-17T15:48:59.415Z,1.33
2023-03-17T15:51:30.471Z,1.07
2023-03-17T15:54:01.333Z,1.17
2023-03-17T15:56:31.961Z,1.53
2023-03-17T15:59:02.712Z,1.00
2023-03-17T16:01:33.516Z,1.20
2023-03-17T16:04:04.895Z,1.13
2023-03-17T16:06:37.250Z,1.10
2023-03-17T16:11:55.099Z,1.00
2023-03-17T16:14:28.251Z,1.13
2023-03-17T16:16:59.798Z,1.10
2023-03-17T16:19:31.344Z,1.30
2023-03-17T16:22:02.744Z,1.30
2023-03-17T16:24:33.616Z,1.07
2023-03-17T16:27:04.560Z,1.30
2023-03-17T16:29:35.697Z,0.93
2023-03-17T16:32:08.924Z,1.20
2023-03-17T16:34:39.601Z,1.17
2023-03-17T16:39:52.691Z,1.10
2023-03-17T16:42:25.533Z,1.17
2023-03-17T16:44:57.558Z,1.10
2023-03-17T16:47:28.429Z,1.10
2023-03-17T16:49:59.289Z,1.17
2023-03-17T16:52:30.299Z,1.20
2023-03-17T16:55:02.306Z,0.80
2023-03-17T16:57:33.404Z,1.40
2023-03-17T17:00:04.659Z,0.73
2023-03-17T17:02:35.832Z,1.00
2023-03-17T17:05:13.795Z,1.27
2023-03-17T17:07:45.217Z,1.07
2023-03-17T17:10:18.828Z,1.27
2023-03-17T17:12:50.644Z,1.00
2023-03-17T17:15:24.350Z,1.30
2023-03-17T17:17:57.727Z,1.07
2023-03-17T17:20:31.016Z,1.50
2023-03-17T17:23:02.814Z,1.30
2023-03-17T17:25:33.975Z,1.10
2023-03-17T17:28:05.351Z,1.40
2023-03-17T17:30:36.602Z,1.20
2023-03-17T17:35:46.708Z,1.60
2023-03-17T17:38:22.461Z,1.00
2023-03-17T17:40:53.867Z,1.10
2023-03-17T17:43:25.569Z,1.00
2023-03-17T17:45:57.443Z,1.30
2023-03-17T17:48:29.167Z,1.40
2023-03-17T17:51:00.785Z,1.00
2023-03-17T17:53:31.986Z,1.10
2023-03-17T17:56:03.012Z,1.20
2023-03-17T17:58:34.003Z,1.53
2023-03-17T18:01:05.699Z,1.10
2023-03-17T18:03:36.634Z,1.13
2023-03-17T18:06:08.957Z,1.23
2023-03-17T18:08:40.307Z,1.30
2023-03-17T18:11:12.326Z,1.37
2023-03-17T18:13:43.363Z,1.43
2023-03-17T18:18:54.844Z,2.43
2023-03-17T18:21:26.090Z,1.40
2023-03-17T18:23:57.510Z,1.20
2023-03-17T18:26:29.428Z,1.20
2023-03-17T18:29:01.334Z,1.00
2023-03-17T18:31:35.583Z,1.43
2023-03-17T18:34:09.986Z,1.33
2023-03-17T18:36:41.707Z,1.23
2023-03-17T18:39:12.608Z,1.47
2023-03-17T18:41:44.567Z,1.13
2023-03-17T18:44:18.918Z,1.40
2023-03-17T18:46:50.117Z,1.40
2023-03-17T18:49:22.635Z,1.77
2023-03-17T18:51:53.721Z,1.43
2023-03-17T18:54:25.415Z,1.40
2023-03-17T18:56:58.135Z,1.20
2023-03-17T18:59:29.057Z,1.47
2023-03-17T19:02:18.480Z,1.07
2023-03-17T19:04:49.338Z,1.60
2023-03-17T19:07:21.919Z,1.70
2023-03-17T19:09:52.883Z,1.50
2023-03-17T19:12:24.075Z,1.10
2023-03-17T19:14:55.642Z,1.20
2023-03-17T19:17:26.739Z,1.50
2023-03-17T19:19:58.056Z,0.97
2023-03-17T19:22:29.175Z,1.20
2023-03-17T19:25:00.006Z,1.30
2023-03-17T19:27:31.594Z,1.83
2023-03-17T19:30:03.183Z,1.57
2023-03-17T19:32:35.205Z,1.03
2023-03-17T19:35:07.954Z,1.40
2023-03-17T19:37:39.298Z,1.20
2023-03-17T19:40:14.195Z,1.20
2023-03-17T19:42:46.159Z,1.23
2023-03-17T19:45:18.668Z,1.03
2023-03-17T19:47:50.042Z,1.10
2023-03-17T19:50:22.996Z,1.67
2023-03-17T19:52:54.612Z,1.40
2023-03-17T19:55:25.679Z,1.20
2023-03-17T19:57:57.151Z,1.10
2023-03-17T20:00:29.343Z,1.10
2023-03-17T20:03:01.135Z,1.20
2023-03-17T20:05:32.105Z,1.30
2023-03-17T20:08:03.628Z,1.10
2023-03-17T20:10:34.952Z,1.23
2023-03-17T20:13:06.599Z,1.40
2023-03-17T20:15:38.494Z,1.23
2023-03-17T20:18:11.551Z,1.10
2023-03-17T20:20:47.766Z,1.10
2023-03-17T20:23:19.543Z,1.73
2023-03-17T20:25:51.050Z,1.60
2023-03-17T20:28:23.304Z,1.30
2023-03-17T20:30:57.691Z,1.60
2023-03-17T20:33:28.857Z,1.60
2023-03-17T20:36:00.388Z,1.97
2023-03-17T20:38:33.584Z,1.20
2023-03-17T20:41:12.645Z,1.33
2023-03-17T20:43:44.316Z,1.80
2023-03-17T20:46:18.601Z,1.10
2023-03-17T20:48:51.636Z,1.40
2023-03-17T20:51:22.627Z,1.40
2023-03-17T20:53:55.317Z,1.43
2023-03-17T20:56:29.548Z,1.40
2023-03-17T20:59:03.174Z,1.40
2023-03-17T21:01:37.357Z,1.30
2023-03-17T21:04:10.303Z,1.63
2023-03-17T21:06:42.212Z,1.30
2023-03-17T21:09:13.467Z,1.40
2023-03-17T21:11:45.991Z,1.37
2023-03-17T21:14:17.452Z,1.47
2023-03-17T21:16:48.783Z,1.30
2023-03-17T21:19:19.952Z,1.40
2023-03-17T21:21:51.764Z,1.30
2023-03-17T21:24:28.833Z,1.67
2023-03-17T21:27:00.938Z,1.50
2023-03-17T21:29:33.441Z,1.77
2023-03-17T21:32:05.460Z,1.67
2023-03-17T21:34:36.966Z,1.20
2023-03-17T21:37:08.080Z,1.40
2023-03-17T21:39:39.304Z,1.60
2023-03-17T21:42:11.771Z,1.40
2023-03-17T21:44:43.411Z,1.30
2023-03-17T21:47:14.588Z,1.37
2023-03-17T21:49:45.696Z,1.47
2023-03-17T21:52:16.688Z,1.70
2023-03-17T21:54:49.084Z,1.63
2023-03-17T21:57:19.978Z,1.53
2023-03-17T21:59:50.986Z,1.60
2023-03-17T22:02:22.016Z,1.27
2023-03-17T22:04:53.039Z,1.83
2023-03-17T22:07:24.001Z,1.77
2023-03-17T22:09:57.217Z,1.47
2023-03-17T22:12:28.870Z,1.27
2023-03-17T22:15:00.191Z,1.97
2023-03-17T22:17:31.005Z,1.77
2023-03-17T22:20:02.073Z,1.57
2023-03-17T22:22:33.006Z,1.90
2023-03-17T22:25:05.634Z,1.80
2023-03-17T22:27:36.978Z,1.97
2023-03-17T22:30:09.560Z,1.30
2023-03-17T22:32:41.179Z,1.87
2023-03-17T22:35:13.345Z,1.67
2023-03-17T22:37:44.341Z,1.63
2023-03-17T22:40:16.299Z,2.07
2023-03-17T22:42:47.286Z,1.50
2023-03-17T22:45:18.802Z,1.60
2023-03-17T22:47:49.614Z,1.80
2023-03-17T22:50:22.089Z,1.50
2023-03-17T22:52:52.995Z,1.60
2023-03-17T22:55:23.827Z,1.50
2023-03-17T22:57:55.131Z,1.70
2023-03-17T23:00:26.623Z,1.50
2023-03-17T23:02:57.562Z,1.43
2023-03-17T23:05:28.467Z,1.87
2023-03-17T23:07:59.652Z,1.53
2023-03-17T23:10:32.497Z,1.60
2023-03-17T23:13:04.021Z,1.90
2023-03-17T23:15:36.246Z,2.00
2023-03-17T23:18:07.474Z,2.50
2023-03-17T23:20:40.126Z,1.97
2023-03-17T23:23:12.484Z,1.90
2023-03-17T23:25:44.672Z,1.70
2023-03-17T23:28:15.698Z,2.23
2023-03-17T23:30:47.433Z,1.80
2023-03-17T23:33:20.168Z,1.73
2023-03-17T23:35:51.550Z,1.80
2023-03-17T23:38:23.570Z,2.07
2023-03-17T23:43:35.808Z,1.70
2023-03-17T23:46:07.459Z,2.00
2023-03-17T23:48:40.352Z,2.17
2023-03-17T23:51:12.778Z,1.83
2023-03-17T23:53:43.991Z,1.97
2023-03-17T23:56:15.630Z,1.60
2023-03-17T23:58:48.472Z,1.70
